createdAt,value
2023-01-17T00:03:58.488Z,3.26
2023-01-17T00:09:20.463Z,3.27
2023-01-17T00:14:23.880Z,3.27
2023-01-17T00:19:46.029Z,3.28
2023-01-17T00:25:08.079Z,3.28
2023-01-17T00:30:12.108Z,3.28
2023-01-17T00:35:16.138Z,3.27
2023-01-17T00:40:19.352Z,3.27
2023-01-17T00:45:41.337Z,3.25
2023-01-17T00:51:03.304Z,3.21
2023-01-17T00:56:26.728Z,3.15
2023-01-17T01:01:49.260Z,3.08
2023-01-17T01:07:11.744Z,3.02
2023-01-17T01:12:33.689Z,2.98
2023-01-17T01:17:55.644Z,2.95
2023-01-17T01:23:17.580Z,2.94
2023-01-17T01:28:39.529Z,2.93
2023-01-17T01:33:43.045Z,2.93
2023-01-17T01:38:46.571Z,2.93
2023-01-17T01:43:56.322Z,2.93
2023-01-17T01:49:05.329Z,2.93
2023-01-17T01:54:14.512Z,2.94
2023-01-17T01:59:20.558Z,2.95
2023-01-17T02:04:25.833Z,2.94
2023-01-17T02:09:29.053Z,2.94
2023-01-17T02:14:32.169Z,2.94
2023-01-17T02:20:23.492Z,2.93
2023-01-17T02:26:04.282Z,2.92
2023-01-17T02:31:37.910Z,2.90
2023-01-17T02:36:56.137Z,2.90
2023-01-17T02:42:06.560Z,2.89
2023-01-17T02:47:36.075Z,2.88
2023-01-17T02:53:09.686Z,2.88
2023-01-17T02:58:24.462Z,2.87
2023-01-17T03:03:44.774Z,2.88
2023-01-17T03:08:50.749Z,2.87
2023-01-17T03:13:58.194Z,2.87
2023-01-17T03:19:01.373Z,2.86
2023-01-17T03:24:04.671Z,2.84
2023-01-17T03:29:07.884Z,2.80
2023-01-17T03:34:11.296Z,2.74
2023-01-17T03:39:14.600Z,2.70
2023-01-17T03:44:17.917Z,2.67
2023-01-17T03:49:21.122Z,2.64
2023-01-17T03:54:24.326Z,2.61
2023-01-17T03:59:27.538Z,2.56
2023-01-17T04:04:30.746Z,2.52
2023-01-17T04:09:34.871Z,2.50
2023-01-17T04:14:37.897Z,2.47
2023-01-17T04:19:41.501Z,2.43
2023-01-17T04:24:44.697Z,2.40
2023-01-17T04:29:48.024Z,2.37
2023-01-17T04:34:51.423Z,2.36
2023-01-17T04:39:54.528Z,2.36
2023-01-17T04:44:57.734Z,2.37
2023-01-17T04:50:01.068Z,2.36
2023-01-17T04:55:05.549Z,2.37
2023-01-17T05:00:09.816Z,2.38
2023-01-17T05:05:13.717Z,2.38
2023-01-17T05:10:17.665Z,2.39
2023-01-17T05:15:20.983Z,2.40
2023-01-17T05:20:26.233Z,2.40
2023-01-17T05:25:32.270Z,2.41
2023-01-17T05:30:35.466Z,2.42
2023-01-17T05:35:38.735Z,2.42
2023-01-17T05:40:42.132Z,2.42
2023-01-17T05:45:48.006Z,2.41
2023-01-17T05:50:52.485Z,2.43
2023-01-17T05:55:55.856Z,2.45
2023-01-17T06:00:59.581Z,2.48
2023-01-17T06:06:02.899Z,2.51
2023-01-17T06:11:06.771Z,2.56
2023-01-17T06:16:10.277Z,2.61
2023-01-17T06:21:13.530Z,2.68
2023-01-17T06:26:16.852Z,2.74
2023-01-17T06:31:20.220Z,2.81
2023-01-17T06:36:24.690Z,2.85
2023-01-17T06:41:28.007Z,2.91
2023-01-17T06:46:31.143Z,2.96
2023-01-17T06:51:34.324Z,3.03
2023-01-17T06:56:37.770Z,3.08
2023-01-17T07:01:41.831Z,3.16
2023-01-17T07:06:45.270Z,3.24
2023-01-17T07:11:48.482Z,3.33
2023-01-17T07:16:52.195Z,3.42
2023-01-17T07:21:55.411Z,3.49
2023-01-17T07:26:58.919Z,3.55
2023-01-17T07:32:03.460Z,3.60
2023-01-17T07:37:06.879Z,3.66
2023-01-17T07:42:10.081Z,3.73
2023-01-17T07:47:13.196Z,3.80
2023-01-17T07:52:18.130Z,3.86
2023-01-17T07:57:21.557Z,3.93
2023-01-17T08:02:24.755Z,3.98
2023-01-17T08:07:27.861Z,4.02
2023-01-17T08:12:31.171Z,4.09
2023-01-17T08:17:35.092Z,4.15
2023-01-17T08:22:38.627Z,4.22
2023-01-17T08:27:41.864Z,4.25
2023-01-17T08:32:44.922Z,4.28
2023-01-17T08:37:49.322Z,4.29
2023-01-17T08:42:57.218Z,4.30
2023-01-17T08:48:01.625Z,4.33
2023-01-17T08:53:05.032Z,4.37
2023-01-17T08:58:08.443Z,4.44
2023-01-17T09:03:14.642Z,4.52
2023-01-17T09:08:17.924Z,4.71
2023-01-17T09:13:22.675Z,4.92
2023-01-17T09:18:27.221Z,4.94
2023-01-17T09:23:30.623Z,4.88
2023-01-17T09:28:41.303Z,4.82
2023-01-17T09:33:45.050Z,4.86
2023-01-17T09:38:48.551Z,5.02
2023-01-17T09:44:23.490Z,5.18
2023-01-17T09:49:35.718Z,5.36
2023-01-17T09:54:42.457Z,5.48
2023-01-17T10:00:39.059Z,5.59
2023-01-17T10:06:05.009Z,5.82
2023-01-17T10:11:17.076Z,6.18
2023-01-17T10:16:53.137Z,6.60
2023-01-17T10:22:02.547Z,7.86
2023-01-17T10:27:34.430Z,8.32
2023-01-17T10:32:49.790Z,8.05
2023-01-17T10:37:57.056Z,7.65
2023-01-17T10:43:24.911Z,7.19
2023-01-17T10:48:47.783Z,6.98
2023-01-17T10:54:06.243Z,7.04
2023-01-17T10:59:17.686Z,6.92
2023-01-17T11:04:31.092Z,6.78
2023-01-17T11:09:42.609Z,6.61
2023-01-17T11:15:18.171Z,6.49
2023-01-17T11:20:41.275Z,6.33
2023-01-17T11:25:55.212Z,6.21
2023-01-17T11:31:01.238Z,6.18
2023-01-17T11:36:05.038Z,6.25
2023-01-17T11:41:29.308Z,6.42
2023-01-17T11:46:33.468Z,6.52
2023-01-17T11:51:42.560Z,6.59
2023-01-17T11:56:46.697Z,6.71
2023-01-17T12:02:05.277Z,6.62
2023-01-17T12:07:13.180Z,6.52
2023-01-17T12:13:02.168Z,6.42
2023-01-17T12:18:26.671Z,6.41
2023-01-17T12:23:59.271Z,6.43
2023-01-17T12:29:29.111Z,6.50
2023-01-17T12:34:51.658Z,6.49
2023-01-17T12:40:00.905Z,6.41
2023-01-17T12:45:15.876Z,6.27
2023-01-17T12:50:29.035Z,6.07
2023-01-17T12:56:02.669Z,5.96
2023-01-17T13:01:18.839Z,5.90
2023-01-17T13:06:36.533Z,5.86
2023-01-17T13:12:08.190Z,5.78
2023-01-17T13:17:46.622Z,5.66
2023-01-17T13:22:52.184Z,5.56
2023-01-17T13:28:05.744Z,5.49
2023-01-17T13:33:09.086Z,5.42
2023-01-17T13:38:55.171Z,5.33
2023-01-17T13:44:20.124Z,5.25
2023-01-17T13:49:29.330Z,5.22
2023-01-17T13:54:34.583Z,5.21
2023-01-17T13:59:37.691Z,5.21
2023-01-17T14:05:00.246Z,5.19
2023-01-17T14:10:36.954Z,5.19
2023-01-17T14:15:50.923Z,5.20
2023-01-17T14:21:10.956Z,5.21
2023-01-17T14:26:21.602Z,5.19
2023-01-17T14:31:26.821Z,5.15
2023-01-17T14:36:33.322Z,5.09
2023-01-17T14:41:36.532Z,5.05
2023-01-17T14:46:40.233Z,5.02
2023-01-17T14:51:43.478Z,4.98
2023-01-17T14:56:48.399Z,4.95
2023-01-17T15:02:06.667Z,4.91
2023-01-17T15:07:16.910Z,4.89
2023-01-17T15:12:20.359Z,4.89
2023-01-17T15:17:25.108Z,4.88
2023-01-17T15:22:29.979Z,4.87
2023-01-17T15:27:33.869Z,4.88
2023-01-17T15:32:39.177Z,4.90
2023-01-17T15:37:42.347Z,4.91
2023-01-17T15:42:51.791Z,4.93
2023-01-17T15:47:55.485Z,4.93
2023-01-17T15:53:03.846Z,4.91
2023-01-17T15:58:29.039Z,4.89
2023-01-17T16:03:32.476Z,4.85
2023-01-17T16:08:39.311Z,4.80
2023-01-17T16:13:43.580Z,4.75
2023-01-17T16:18:48.653Z,4.74
2023-01-17T16:23:52.576Z,4.71
2023-01-17T16:28:56.501Z,4.66
2023-01-17T16:34:00.735Z,4.55
2023-01-17T16:39:05.043Z,4.41
2023-01-17T16:44:10.116Z,4.28
2023-01-17T16:49:14.766Z,4.15
2023-01-17T16:54:18.889Z,4.04
2023-01-17T16:59:23.059Z,3.92
2023-01-17T17:04:28.173Z,3.83
2023-01-17T17:09:31.884Z,3.81
2023-01-17T17:14:36.223Z,3.87
2023-01-17T17:19:39.653Z,3.99
2023-01-17T17:24:43.267Z,4.14
2023-01-17T17:29:46.569Z,4.29
2023-01-17T17:34:53.467Z,4.42
2023-01-17T17:39:58.149Z,4.53
2023-01-17T17:45:01.823Z,4.61
2023-01-17T17:50:08.719Z,4.67
2023-01-17T17:55:14.951Z,4.67
2023-01-17T18:00:19.683Z,4.66
2023-01-17T18:05:25.200Z,4.64
2023-01-17T18:10:28.515Z,4.58
2023-01-17T18:15:32.027Z,4.47
2023-01-17T18:20:35.644Z,4.32
2023-01-17T18:25:39.776Z,4.16
2023-01-17T18:30:43.697Z,3.96
2023-01-17T18:35:58.772Z,3.77
2023-01-17T18:41:04.503Z,3.60
2023-01-17T18:46:10.770Z,3.46
2023-01-17T18:51:17.878Z,3.32
2023-01-17T18:56:23.388Z,3.17
2023-01-17T19:01:33.728Z,3.06
2023-01-17T19:06:41.638Z,2.97
2023-01-17T19:11:46.537Z,2.91
2023-01-17T19:16:50.066Z,2.83
2023-01-17T19:21:54.332Z,2.78
2023-01-17T19:26:57.897Z,2.71
2023-01-17T19:32:01.417Z,2.66
2023-01-17T19:37:06.529Z,2.61
2023-01-17T19:42:15.757Z,2.55
2023-01-17T19:47:19.234Z,2.47
2023-01-17T19:52:24.502Z,2.40
2023-01-17T19:57:34.887Z,2.31
2023-01-17T20:02:39.133Z,2.16
2023-01-17T20:07:42.512Z,2.02
2023-01-17T20:12:46.031Z,1.86
2023-01-17T20:17:49.440Z,1.69
2023-01-17T20:22:52.958Z,1.56
2023-01-17T20:27:58.250Z,1.48
2023-01-17T20:33:02.241Z,1.37
2023-01-17T20:38:10.870Z,1.24
2023-01-17T20:43:14.901Z,1.12
2023-01-17T20:48:18.224Z,1.01
2023-01-17T20:53:22.544Z,0.98
2023-01-17T20:58:26.060Z,0.95
2023-01-17T21:03:29.774Z,0.93
2023-01-17T21:08:36.164Z,0.89
2023-01-17T21:13:40.497Z,0.85
2023-01-17T21:18:47.858Z,0.81
2023-01-17T21:23:53.735Z,0.76
2023-01-17T21:29:00.450Z,0.70
2023-01-17T21:34:06.750Z,0.64
2023-01-17T21:39:18.987Z,0.61
2023-01-17T21:44:23.928Z,0.62
2023-01-17T21:49:27.043Z,0.65
2023-01-17T21:54:49.790Z,0.67
2023-01-17T21:59:52.992Z,0.64
2023-01-17T22:04:56.619Z,0.59
2023-01-17T22:09:59.726Z,0.61
2023-01-17T22:15:06.819Z,0.58
2023-01-17T22:20:12.070Z,0.50
2023-01-17T22:25:15.483Z,0.45
2023-01-17T22:30:19.877Z,0.37
2023-01-17T22:35:24.155Z,0.18
2023-01-17T22:40:28.356Z,0.00
2023-01-17T22:45:31.799Z,-0.11
2023-01-17T22:50:35.120Z,-0.09
2023-01-17T22:55:38.521Z,-0.17
2023-01-17T23:00:41.834Z,-0.31
2023-01-17T23:05:47.102Z,-0.43
2023-01-17T23:11:09.133Z,-0.52
2023-01-17T23:16:31.299Z,-0.62
2023-01-17T23:21:54.466Z,-0.73
2023-01-17T23:27:16.312Z,-0.83
2023-01-17T23:32:19.620Z,-0.88
2023-01-17T23:37:47.405Z,-0.93
2023-01-17T23:43:09.559Z,-0.95
2023-01-17T23:48:12.970Z,-0.93
2023-01-17T23:53:23.563Z,-0.93
2023-01-17T23:58:28.293Z,-0.96
